METAR、SPECI、TAF(飛行場実況・予報)


■ METAR、SPECI(飛行場実況)

METAR RJOO 261900Z AUTO 16003KT 120V230 9999 -RA FEW047 BKN060 OVC090 20/16 Q1007 RMK A2976
METAR RJOO 262000Z AUTO 17003KT 9999 NSC 20/17 Q1007 RMK A2974
METAR RJOO 262100Z AUTO 07003KT 9999 -RA SCT036 BKN050 BKN060 20/17 Q1006 RMK A2973
METAR RJOO 262200Z 07004KT 9999 -SHRA FEW015 BKN035 BKN070 19/17 Q1006 RMK 1CU015 5CU035 7AC070 A2972
METAR RJOO 262300Z 06006KT 020V080 9999 -SHRA FEW008 SCT015 BKN025 19/17 Q1006 RMK 1ST008 3CU015 7CU025 A2972
METAR RJOO 270000Z 07008KT 050V110 9000 -SHRA FEW008 SCT025 BKN040 20/18 Q1006 RMK 1ST008 4CU025 6CU040 A2971
METAR RJOO 270100Z 07006KT 030V110 7000 -SHRA BR FEW008 BKN025 20/18 Q1005 RMK 1ST008 7CU025 A2970
SPECI RJOO 270113Z VRB04KT 4000 -SHRA BR FEW005 SCT010 BKN020 20/18 Q1005 RMK 1ST005 3CU010 7CU020 A2969
METAR RJOO 270200Z 08005KT 010V120 5000 -SHRA BR FEW005 SCT008 BKN015 20/19 Q1005 RMK 1ST005 3ST008 5CU015 A2969
METAR RJOO 270300Z 06004KT 360V130 7000 -SHRA BR FEW005 SCT010 BKN015 20/19 Q1004 RMK 1ST005 3CU010 6CU015 A2967
METAR RJOO 270400Z 08005KT 350V120 9999 FEW005 BKN012 BKN025 22/19 Q1004 RMK 1ST005 5CU012 7CU025 A2965
METAR RJOO 270500Z 08004KT 360V110 9999 FEW005 BKN012 BKN030 23/20 Q1003 RMK 1ST005 5CU012 6CU030 A2964
METAR RJOO 270600Z 15004KT 100V220 9999 FEW008 SCT013 BKN025 25/21 Q1003 RMK 1ST008 3CU013 5CU025 A2963
METAR RJOO 270700Z 25004KT 180V310 9999 FEW008 SCT020 BKN040 27/22 Q1003 RMK 1ST008 3CU020 5CU040 A2962
METAR RJOO 270800Z 25004KT 210V290 9999 FEW008 SCT020 BKN035 27/22 Q1003 RMK 1ST008 3CU020 6CU035 A2962
METAR RJOO 270900Z 26004KT 210V290 9999 FEW015 SCT040 BKN120 26/22 Q1003 RMK 1CU015 4CU040 5AC120 A2962
METAR RJOO 271000Z 26003KT 230V290 9999 FEW015 SCT030 BKN040 26/22 Q1003 RMK 1CU015 3CU030 6CU040 A2963
METAR RJOO 271100Z 27005KT 210V320 9999 -SHRA FEW015 SCT020 BKN030 25/22 Q1003 RMK 1CU015 4CU020 6CU030 A2964
METAR RJOO 271200Z AUTO 25003KT 200V300 9999 -RA BKN024 OVC027 //////TCU 24/22 Q1004 RMK A2966 TCU 20KM N AND 35KM NE MOV NE
METAR RJOO 271300Z AUTO 25003KT 190V300 9999 -RA SCT015 BKN017 OVC020 //////CB 24/22 Q1004 RMK A2965 CB 40KM S MOV E TCU 30KM N MOV NE
METAR RJOO 271400Z AUTO 24004KT 170V290 9999 -RA SCT007 BKN008 OVC019 //////TCU 24/22 Q1003 RMK A2964 TCU 35KM SE MOV NE AND 35KM SW MOV E
METAR RJOO 271500Z AUTO 24004KT 150V300 9999 TSUP BKN003 OVC037 //////CB 23/// Q1003 RMK A2963 RI007 TS 20KM SW MOV NE TCU 30KM SE MOV NE
METAR RJOO 271600Z AUTO VRB06KT 9999 UP FEW005 SCT011 BKN019 //////CB 23/// Q1002 RMK A2961 CB 5KM NE-E MOV E
METAR RJOO 271700Z AUTO VRB02KT 1600 R32L/1200VP2000D UP SCT003 BKN006 OVC013 //////TCU 22/// Q1002 RMK A2960 RI027 TCU NE-OHD-SW MOV NE
METAR RJOO 271800Z AUTO VRB03KT 9999 UP SCT007 SCT010 OVC013 //////TCU 23/// Q1002 RMK A2960 TCU 5KM NE MOV NE
METAR RJOO 271900Z AUTO 20005KT 150V260 9999 UP FEW003 BKN007 OVC013 //////TCU 22/// Q1002 RMK A2959 TCU W-OHD-NE MOV N
SPECI RJOO 271917Z AUTO 20004KT 150V260 9999 UP BKN005 BKN008 OVC010 //////TCU 22/// Q1002 RMK A2959 TCU 15KM W-NE MOV N
SPECI RJOO 271934Z AUTO 21005KT 150V330 9999 UP BKN006 OVC008 //////TCU 22/// Q1002 RMK A2959 TCU 5KM NW-NE MOV N
METAR RJOO 272000Z AUTO 26003KT 210V320 9999 UP BKN006 OVC029 //////TCU 22/// Q1002 RMK A2960 TCU 35KM NE MOV UNKNOWN
SPECI RJOO 272009Z AUTO 26003KT 200V320 9999 UP BKN005 BKN009 OVC029 //////TCU 22/// Q1002 RMK A2960 TCU 35KM NE MOV UNKNOWN
SPECI RJOO 272030Z AUTO 25003KT 180V310 9999 UP FEW005 SCT007 BKN015 22/// Q1002 RMK A2961
SPECI RJOO 272048Z AUTO 25005KT 190V330 9999 UP BKN007 BKN023 BKN070 22/// Q1002 RMK A2961
METAR RJOO 272100Z AUTO 24004KT 170V290 9999 UP FEW007 SCT015 BKN090 //////TCU 22/// Q1002 RMK A2961 TCU 25KM N MOV NE
SPECI RJOO 272055Z AUTO 24005KT 170V280 9999 UP SCT007 SCT020 BKN031 22/// Q1002 RMK A2961
METAR RJOO 272200Z VRB03KT 8000 -SHRA FEW003 SCT006 BKN015 22/21 Q1002 RMK 1ST003 3ST006 7CU015 A2961
SPECI RJOO 272215Z VRB03KT 6000 SHRA BR FEW003 SCT006 BKN015 22/21 Q1002 RMK 1ST003 3ST006 6CU015 A2961
SPECI RJOO 272224Z 25005KT 200V300 3500 SHRA BR FEW003 SCT007 BKN015 22/21 Q1002 RMK 1ST003 3ST007 7CU015 A2961
METAR RJOO 272300Z VRB01KT 6000 SHRA BR FEW002 SCT005 BKN015 21/21 Q1002 RMK 1ST002 3ST005 6CU015 A2960
METAR RJOO 280000Z VRB01KT 7000 SHRA BR FEW003 BKN015 BKN035 22/21 Q1002 RMK 1ST003 5CU015 7CU035 A2959
METAR RJOO 280100Z 02003KT 340V080 7000 SHRA BR FEW003 SCT020 BKN040 22/21 Q1001 RMK 1ST003 4CU020 6CU040 A2956
SPECI RJOO 280120Z 01005KT 330V060 4000 SHRA BR FEW003 SCT015 BKN025 22/21 Q1000 RMK 1ST003 3CU015 5CU025 A2955 MOD TURB OBS AT 0105Z 7NM SE ITE BTN 7000FT AND 8000FT IN CMB B763
SPECI RJOO 280142Z 05003KT 010V140 2500 R32L/1000VP2000D +SHRA BR FEW003 SCT010 BKN015 22/21 Q1000 RMK 1ST003 3CU010 5CU015 A2955 RI++
SPECI RJOO 280147Z 09003KT 010V140 1500 R32L/0900VP2000N +SHRA BR FEW002 SCT005 BKN015 21/21 Q1000 RMK 1ST002 3ST005 6CU015 A2955 RI++
METAR RJOO 280200Z 05006KT 020V080 1800 R32L/1500VP2000D +SHRA BR FEW002 SCT005 BKN015 21/20 Q1000 RMK 1ST002 3ST005 6CU015 A2954
SPECI RJOO 280212Z 08006KT 040V140 3500 R32L/1900U SHRA BR FEW002 SCT010 BKN020 21/20 Q1000 RMK 1ST002 3CU010 6CU020 A2954
SPECI RJOO 280250Z 09007KT 360V120 2500 +SHRA BR FEW002 SCT006 BKN015 21/20 Q0999 RMK 1ST002 3ST006 6CU015 A2951
METAR RJOO 280300Z 07008KT 040V100 2500 +SHRA BR FEW002 SCT006 BKN015 20/19 Q0999 RMK 1ST002 3ST006 6CU015 A2950
SPECI RJOO 280343Z 32010KT 2500 +SHRA BR FEW002 SCT006 BKN010 18/17 Q0999 RMK 1ST002 4ST006 6CU010 A2951 MOD TURB OBS AT 0330Z 4NM S ITE BTN 3000FT AND 8000FT IN CMB B78X
SPECI RJOO 280409Z 34013KT 2500 R32L/1400VP2000U +SHRA BR FEW002 SCT006 BKN015 18/17 Q0998 RMK 1ST002 4ST006 6CU015 A2949
METAR RJOO 280400Z 35012KT 1500 R32L/1100VP2000D +SHRA BR FEW002 SCT006 BKN010 18/17 Q0998 RMK 1ST002 4ST006 6CU010 A2950
METAR RJOO 280500Z 02008KT 4000 SHRA BR FEW002 SCT008 BKN020 18/17 Q0996 RMK 1ST002 3ST008 5CU020 A2943 P/FR
SPECI RJOO 280550Z 33018KT 3500 SHRA BR FEW002 SCT008 BKN015 16/15 Q0995 RMK 1ST002 4ST008 6CU015 A2940
METAR RJOO 280600Z 34019KT 2000 R32L/1400VP2000D +SHRA BR FEW002 SCT008 BKN015 16/15 Q0995 RMK 1ST002 4ST008 6CU015 A2940
SPECI RJOO 280629Z 34017G27KT 320V020 2000 R32L/1400VP2000U SHRA BR FEW002 SCT008 BKN015 15/14 Q0994 RMK 1ST002 4ST008 6CU015 A2938
SPECI RJOO 280646Z 36010KT 2000 R32L/2000N +SHRA BR FEW002 SCT008 BKN015 FEW020CB 16/15 Q0994 RMK 1ST002 4ST008 6CU015 1CB020 A2937 CB 20KM SW MOV NE P/FR
METAR RJOO 280700Z 07004KT 320V120 2000 R32L/2000N +SHRA BR FEW002 SCT008 BKN015 FEW020CB 17/16 Q0994 RMK 1ST002 4ST008 6CU015 1CB020 A2935 CB 10KM SW-W MOV NE
SPECI RJOO 280726Z 31008KT 260V340 4000 SHRA BR FEW005 SCT008 BKN015 16/15 Q0994 RMK 1ST005 4ST008 5CU015 A2937
SPECI RJOO 280747Z 32013KT 1500 R32L/2000N +SHRA BR FEW002 SCT008 BKN010 16/15 Q0995 RMK 1ST002 4ST008 5CU010 A2940 MOD TURB OBS AT 0737Z 5NM S IKOMA 5000FT B738 P/RR
METAR RJOO 280800Z 32013KT 2000 SHRA BR FEW002 SCT008 BKN015 16/15 Q0996 RMK 1ST002 4ST008 5CU015 A2941 P/RR
SPECI RJOO 280823Z 31012KT 4000 SHRA BR FEW003 SCT008 BKN020 16/15 Q0996 RMK 1ST003 4ST008 5CU020 A2943
METAR RJOO 280900Z 30007KT 5000 -SHRA BR FEW003 SCT008 BKN015 16/15 Q0997 RMK 1ST003 3ST008 5CU015 A2946
METAR RJOO 281000Z 33013KT 9999 -SHRA FEW008 SCT020 BKN040 16/14 Q0999 RMK 1ST008 3CU020 6CU040 A2952 P/RR
METAR RJOO 281100Z 32009KT 280V350 9999 -SHRA FEW005 SCT015 BKN035 16/13 Q1001 RMK 1ST005 3CU015 6CU035 A2958
METAR RJOO 281200Z AUTO 33011KT 9999 FEW023 SCT031 OVC050 16/13 Q1002 RMK A2961
METAR RJOO 281300Z AUTO 36004KT 9999 FEW027 SCT029 BKN032 16/13 Q1003 RMK A2963
METAR RJOO 281400Z AUTO 33005KT 300V360 9999 OVC025 16/13 Q1004 RMK A2965
METAR RJOO 281500Z AUTO 32007KT 9999 OVC025 16/12 Q1004 RMK A2967
METAR RJOO 281600Z AUTO 32005KT 9999 FEW025 SCT033 OVC050 16/12 Q1005 RMK A2969
METAR RJOO 281700Z AUTO 27003KT 220V320 9999 BKN030 BKN050 OVC060 16/12 Q1006 RMK A2971
METAR RJOO 281800Z AUTO 27005KT 220V300 9999 SCT026 OVC032 16/12 Q1006 RMK A2973
METAR RJOO 281900Z AUTO 28005KT 250V310 9999 FEW028 SCT031 BKN036 16/12 Q1008 RMK A2977
METAR RJOO 282000Z AUTO 30006KT 270V330 9999 FEW037 SCT042 BKN045 16/11 Q1009 RMK A2981
METAR RJOO 282100Z AUTO 31007KT 9999 SCT042 BKN045 16/10 Q1010 RMK A2983
METAR RJOO 282200Z 32007KT 290V360 9999 FEW020 SCT035 BKN045 17/10 Q1011 RMK 1CU020 3CU035 5CU045 A2986
METAR RJOO 282300Z 35007KT 280V040 9999 FEW020 SCT035 BKN045 18/11 Q1011 RMK 1CU020 3CU035 6CU045 A2987
METAR RJOO 290000Z 01009KT 350V050 9999 FEW020 BKN040 18/10 Q1011 RMK 1CU020 6CU040 A2988
SPECI RJOO 290012Z 31012KT 280V340 9999 FEW020 BKN040 19/10 Q1011 RMK 1CU020 5CU040 A2987
METAR RJOO 290100Z 35008KT 310V040 9999 FEW020 BKN040 20/11 Q1012 RMK 1CU020 5CU040 A2989
METAR RJOO 290200Z 32010KT 280V350 9999 FEW020 BKN040 20/11 Q1011 RMK 1CU020 5CU040 A2988
METAR RJOO 290300Z 33010KT 9999 FEW025 SCT040 22/11 Q1011 RMK 1CU025 3CU040 A2988
METAR RJOO 290400Z 32010KT 290V010 9999 FEW025 24/10 Q1012 RMK 1CU025 A2988
SPECI RJOO 290431Z 26007KT 180V350 9999 FEW025 23/11 Q1012 RMK 1CU025 A2990
METAR RJOO 290500Z 24008KT 140V280 9999 FEW025 22/11 Q1012 RMK 1CU025 A2990
METAR RJOO 290600Z VRB06KT 9999 FEW030 24/12 Q1012 RMK 1CU030 A2990
METAR RJOO 290700Z 19004KT 140V250 9999 FEW030 23/11 Q1011 RMK 1CU030 A2988
SPECI RJOO 290734Z 35010KT 9999 FEW030 25/09 Q1011 RMK 1CU030 A2988
METAR RJOO 290800Z 34011KT 310V030 9999 FEW030 24/08 Q1011 RMK 1CU030 A2988
METAR RJOO 290900Z 01008KT CAVOK 23/08 Q1012 RMK A2990
METAR RJOO 291000Z 34010KT 9999 FEW030 SCT/// 21/10 Q1012 RMK 1CU030 A2991
METAR RJOO 291100Z 34009KT 9999 FEW030 BKN/// 20/11 Q1014 RMK 1CU030 A2994
METAR RJOO 291200Z AUTO 35008KT 9999 NCD 18/11 Q1013 RMK A2993
METAR RJOO 291300Z AUTO 30005KT 9999 NCD 17/11 Q1014 RMK A2994
METAR RJOO 291400Z AUTO VRB02KT 9999 NCD 16/11 Q1013 RMK A2994
METAR RJOO 291500Z AUTO 31007KT 9999 NCD 15/11 Q1014 RMK A2996
METAR RJOO 291600Z AUTO 31005KT 9999 NCD 15/11 Q1014 RMK A2995
METAR RJOO 291700Z AUTO 31005KT 9999 NCD 14/11 Q1014 RMK A2996
METAR RJOO 291800Z AUTO 32006KT 9999 NCD 13/10 Q1015 RMK A2998
METAR RJOO 291900Z AUTO 01003KT 320V120 9999 NCD 13/10 Q1015 RMK A2997
METAR RJOO 292000Z AUTO VRB02KT 9999 NCD 13/10 Q1015 RMK A2997
METAR RJOO 292100Z AUTO 36003KT 280V090 9999 NCD 15/10 Q1015 RMK A2997
METAR RJOO 292200Z 05007KT CAVOK 17/11 Q1014 RMK A2997
METAR RJOO 292300Z 05009KT 9999 FEW040 SCT/// 19/11 Q1015 RMK 1SC040 A2997
METAR RJOO 300000Z 07007KT 030V120 9999 FEW040 BKN/// 21/11 Q1015 RMK 1SC040 A2997
METAR RJOO 300100Z 12005KT 060V160 9999 FEW040 BKN/// 24/11 Q1014 RMK 1SC040 A2996
METAR RJOO 300200Z VRB04KT 9999 FEW030 BKN/// 25/08 Q1013 RMK 1CU030 A2994
METAR RJOO 300300Z VRB02KT 9999 FEW030 BKN/// 26/09 Q1013 RMK 1CU030 A2992
METAR RJOO 300400Z 25005KT 190V290 9999 FEW030 BKN/// 27/08 Q1012 RMK 1CU030 A2991
METAR RJOO 300500Z 21005KT 120V290 9999 FEW030 BKN130 BKN/// 26/09 Q1012 RMK 1CU030 5AC130 A2990
METAR RJOO 300600Z 23004KT 160V320 9999 FEW030 BKN120 25/13 Q1012 RMK 1CU030 6AC120 A2989
METAR RJOO 300700Z 21007KT 160V240 9999 FEW035 BKN120 24/14 Q1011 RMK 1CU035 7AC120 A2987
METAR RJOO 300800Z 21008KT 170V290 9999 FEW035 BKN120 23/13 Q1011 RMK 1CU035 7AC120 A2986
METAR RJOO 300900Z 24006KT 150V290 9999 FEW035 SCT120 BKN/// 23/14 Q1011 RMK 1CU035 4AC120 A2988
METAR RJOO 301000Z 25006KT 200V300 9999 FEW030 SCT060 BKN100 23/14 Q1012 RMK 1CU030 3SC060 6AC100 A2988 MOD TURB OBS AT 0934Z 10NM SW BECKY FL190 IN DES B788
METAR RJOO 301100Z VRB02KT 9999 -RA FEW030 SCT060 BKN100 22/15 Q1011 RMK 1CU030 3SC060 6AC100 A2988 MOD TURB OBS AT 1042Z 5NM W MIRIO BTN FL220 AND FL210 IN DES E190

■ TAF(飛行場予報)

TAF RJOO 301105Z 3012/3118 07005KT 9000 -RA FEW020 SCT030 BKN045
         BECMG 3017/3019 32005KT
         BECMG 3100/3103 22005KT
         BECMG 3109/3112 32005KT

お知らせ

新着情報

  • 太陽光発電量推算
  • 気象予報士試験過去問・講座
  • Yahoo Weather shop
  • メルカリ Weather shop

ご案内